Decoded Metar for USPP (PERM in RUSSIA) (IATA:PEE) | Meteo·Mobile Aviation Weather
aviador You're here:

USPP Decoded Metar

PERM in RUSSIA
Report Time2019-07-22 15:30:00
UTC Time2019-07-22 15:49:09
Flight Rules ifr IFR
Wind240° at 6 kt
W.Decomp.*RWY 21: 5.8 kt HW 1.7 kt RCW
Visibility9999 m
Phenomena:Squalls
Clouds:N/A
Expected CloudBase > 2,000 ft AGL from Temp-Dew spread
Ceiling500 ft
Temp19°C (ISA +5)
Dew Point14°C (73% RH)
AAT18.1°C
QNH1006 hPa
Density Alt1,608 ft
Elevation558 ft
Report Wrong Elevation
Raw Report
USPP 221530Z 24003MPS CAVOK 19/14 Q1006 R21/090060 TEMPO VRB18MPS
1000 TSRAGR SQ VV005 RMK QFE744=

Extra information for USPP:More info

Metar Taf Metar & Taf Last 4 Metars F.Rules Stats Wind Profile Meteogram Temp Stats Airport Information Weather charts Add Link Nearby VenuesMetar ALERT Operation Metar Decoded Social comments